Pagrindinis puslapis
METAR-TAF:

METAR-TAF

Oro uostai :

Campbeltown, Škotija

platuma: 55-26-14N, ilguma: 005-41-11W, Aukštis: 13 m

Dabartinis oras

Ataskaita buvo paskelbta 2 valandos ir 9 minutes, ne 17:20 UTC
Vėjas 15 kt iš Vakarų
Temperatūra 3°C
Drėgmė 93%
Slėgis 990 hPa
Matomumas 10 km arba daugiau
Mažai debesys ne aukštis 900 ft
Su prošvaistėmis ne aukštis 4800 ft

METAR: EGEC 251720Z 26015KT 9999 FEW009 BKN048 03/02 Q0990

Laikas: 19:29 (19:29 UTC)

Prognozė

Ataskaita buvo paskelbta 5 valandos ir 28 minutes, ne 14:01 UTC
Prognozė galioja nuo 25 metu 15 UTC su 25 metu 18 UTC
Vėjas 15 kt iš Vakarų
Matomumas 10 km arba daugiau
Išsisklaidę debesys ne aukštis 2000 ft
Tikimybė 40% :
Laikinai
nuo 25 metu 15 UTC su 25 metu 18 UTC
Vėjas 18 kt iš Vakarų su gūsio iki 28 kt
Matomumas: 5000 m
Su prošvaistėmis ne aukštis 1100 ft, Liūtiniai kamuoliniai debesys.
lietus, sniegas, lietus, ledo ar sniego kruopos

TAF: EGEC 251401Z 2515/2518 26015KT 9999 SCT020 PROB40 TEMPO 2515/2518 27018G28KT 5000 SHRASN SHRAGS BKN011CB

Orai ataskaitas ir orų prognozės (METAR, TAF).

turimą stotys yra geltonos ir raudonos taškus žemėlapyje.

Perkelti pele per norėdami pamatyti stoties vardą.

Tada spustelėkite, norėdami matyti oro stebėjimo ir prognozės.

Norėdami pakeisti žemėlapį: spustelėkite ant žalios mygtukų su juodo kryžiaus žemyn,; žalią mygtuką su brūkšneliu, jei norite nutolinti; arba žalių rodyklių gretimoms žemėlapius.


METAR-TAF: